createdAt,value
2023-02-01T00:00:19.934Z,745.7
2023-02-01T00:02:03.330Z,724.4
2023-02-01T00:03:46.724Z,613.3
2023-02-01T00:05:30.136Z,605.8
2023-02-01T00:07:13.532Z,614.5
2023-02-01T00:08:56.923Z,629.5
2023-02-01T00:10:40.317Z,653.5
2023-02-01T00:12:23.704Z,676.6
2023-02-01T00:17:32.955Z,717.7
2023-02-01T00:19:16.347Z,728.3
2023-02-01T00:20:59.753Z,737.4
2023-02-01T00:22:43.127Z,745.5
2023-02-01T00:24:26.527Z,761.2
2023-02-01T00:26:10.017Z,773.8
2023-02-01T00:27:53.335Z,784.7
2023-02-01T00:29:36.777Z,790.2
2023-02-01T00:31:20.440Z,796
2023-02-01T00:33:03.818Z,799.3
2023-02-01T00:34:47.210Z,802.5
2023-02-01T00:36:30.619Z,807.5
2023-02-01T00:38:14.022Z,811.6
2023-02-01T00:39:57.651Z,817
2023-02-01T00:41:40.801Z,820.8
2023-02-01T00:43:24.197Z,826.5
2023-02-01T00:48:33.445Z,839.3
2023-02-01T00:50:16.837Z,840.6
2023-02-01T00:52:00.219Z,842.4
2023-02-01T00:53:43.616Z,844.7
2023-02-01T00:55:27.041Z,848.2
2023-02-01T00:57:10.446Z,849.5
2023-02-01T00:58:53.804Z,854.4
2023-02-01T01:00:37.235Z,861.5
2023-02-01T01:04:03.677Z,866
2023-02-01T01:05:47.083Z,868.3
2023-02-01T01:07:30.497Z,868.8
2023-02-01T01:09:13.870Z,867.2
2023-02-01T01:10:57.263Z,869
2023-02-01T01:12:40.660Z,873.1
2023-02-01T01:14:24.089Z,874.4
2023-02-01T01:16:07.452Z,874.1
2023-02-01T01:17:51.188Z,874.9
2023-02-01T01:19:34.559Z,877.1
2023-02-01T01:21:17.955Z,878.2
2023-02-01T01:23:01.359Z,880.6
2023-02-01T01:24:44.752Z,882.5
2023-02-01T01:26:28.140Z,882.7
2023-02-01T01:28:11.615Z,885.2
2023-02-01T01:29:54.974Z,887.8
2023-02-01T01:33:21.409Z,893.8
2023-02-01T01:35:04.798Z,895.8
2023-02-01T01:36:48.201Z,896.1
2023-02-01T01:38:31.600Z,898.5
2023-02-01T01:40:14.975Z,901.7
2023-02-01T01:41:58.384Z,906.4
2023-02-01T01:43:41.789Z,910
2023-02-01T01:45:25.176Z,912.2
2023-02-01T01:48:51.649Z,911.5
2023-02-01T01:50:35.093Z,913.4
2023-02-01T01:52:18.444Z,912.6
2023-02-01T01:54:01.843Z,912.1
2023-02-01T01:55:45.265Z,911.5
2023-02-01T01:57:28.637Z,908.6
2023-02-01T01:59:12.029Z,908.2
2023-02-01T02:00:55.421Z,909.8
2023-02-01T02:04:21.900Z,908.8
2023-02-01T02:06:05.297Z,911.1
2023-02-01T02:07:48.710Z,913
2023-02-01T02:09:32.132Z,914.5
2023-02-01T02:11:15.484Z,915.5
2023-02-01T02:12:58.947Z,919.4
2023-02-01T02:14:42.332Z,920.7
2023-02-01T02:16:25.720Z,923.5
2023-02-01T02:19:52.174Z,917.4
2023-02-01T02:21:35.577Z,917
2023-02-01T02:23:18.975Z,918.4
2023-02-01T02:25:02.396Z,919.3
2023-02-01T02:26:45.775Z,921.8
2023-02-01T02:28:29.164Z,923.6
2023-02-01T02:30:12.601Z,927.5
2023-02-01T02:31:55.944Z,927
2023-02-01T02:33:39.636Z,925.8
2023-02-01T02:35:23.069Z,925.6
2023-02-01T02:37:06.426Z,927.1
2023-02-01T02:38:49.808Z,928.6
2023-02-01T02:40:33.208Z,930.5
2023-02-01T02:42:16.606Z,933.6
2023-02-01T02:43:59.996Z,936.6
2023-02-01T02:45:43.405Z,934.6
2023-02-01T02:49:09.860Z,938.7
2023-02-01T02:50:53.267Z,940
2023-02-01T02:52:36.667Z,943.8
2023-02-01T02:54:20.068Z,946.4
2023-02-01T02:56:03.450Z,947
2023-02-01T02:57:46.858Z,944.2
2023-02-01T02:59:30.238Z,945.5
2023-02-01T03:01:13.627Z,943.1
2023-02-01T03:06:22.880Z,947.2
2023-02-01T03:08:06.277Z,948.3
2023-02-01T03:09:49.666Z,948.3
2023-02-01T03:11:33.059Z,948.2
2023-02-01T03:13:16.497Z,950.4
2023-02-01T03:14:59.858Z,950.7
2023-02-01T03:16:43.239Z,952.6
2023-02-01T03:18:26.649Z,954
2023-02-01T03:23:36.501Z,953
2023-02-01T03:25:19.906Z,952.8
2023-02-01T03:27:03.294Z,957.1
2023-02-01T03:28:46.721Z,961.3
2023-02-01T03:30:30.098Z,963.1
2023-02-01T03:32:13.497Z,962.8
2023-02-01T03:33:56.893Z,965.3
2023-02-01T03:37:23.356Z,966.5
2023-02-01T03:39:06.754Z,965.1
2023-02-01T03:40:50.148Z,964.1
2023-02-01T03:42:33.556Z,964.1
2023-02-01T03:44:16.950Z,962.2
2023-02-01T03:46:00.340Z,958.7
2023-02-01T03:47:43.742Z,959.7
2023-02-01T03:49:27.138Z,959.6
2023-02-01T03:52:53.625Z,957
2023-02-01T03:54:36.999Z,958.4
2023-02-01T03:56:20.406Z,961.6
2023-02-01T03:58:03.875Z,960.3
2023-02-01T03:59:47.184Z,959.6
2023-02-01T04:01:30.578Z,962
2023-02-01T04:03:13.998Z,960.4
2023-02-01T04:04:57.381Z,960.1
2023-02-01T04:06:41.199Z,963.4
2023-02-01T04:08:24.492Z,964.6
2023-02-01T04:10:07.867Z,965.6
2023-02-01T04:11:51.277Z,968.1
2023-02-01T04:13:34.653Z,967.6
2023-02-01T04:15:18.070Z,968.2
2023-02-01T04:17:01.477Z,967.5
2023-02-01T04:18:44.907Z,967
2023-02-01T04:22:11.369Z,969.9
2023-02-01T04:23:54.809Z,970.7
2023-02-01T04:25:38.183Z,974
2023-02-01T04:27:21.566Z,974.5
2023-02-01T04:29:04.941Z,972.3
2023-02-01T04:30:48.423Z,973.1
2023-02-01T04:32:31.770Z,967.7
2023-02-01T04:34:15.169Z,963.8
2023-02-01T04:37:41.627Z,966.1
2023-02-01T04:39:25.037Z,967.3
2023-02-01T04:41:08.406Z,967
2023-02-01T04:42:51.806Z,966.1
2023-02-01T04:44:35.187Z,967.6
2023-02-01T04:46:18.682Z,969.6
2023-02-01T04:48:02.017Z,970.3
2023-02-01T04:49:45.407Z,971.3
2023-02-01T04:51:29.067Z,969.1
2023-02-01T04:53:12.461Z,965.8
2023-02-01T04:54:55.867Z,966.3
2023-02-01T04:56:39.261Z,970.4
2023-02-01T04:58:22.663Z,975.3
2023-02-01T05:00:06.130Z,976.5
2023-02-01T05:01:49.453Z,975.4
2023-02-01T05:03:32.830Z,972.7
2023-02-01T05:06:59.310Z,972.9
2023-02-01T05:08:42.708Z,972.3
2023-02-01T05:10:26.128Z,971.2
2023-02-01T05:12:09.500Z,972.6
2023-02-01T05:13:52.885Z,973.1
2023-02-01T05:15:36.288Z,975.3
2023-02-01T05:17:19.678Z,975.1
2023-02-01T05:22:28.918Z,975.9
2023-02-01T05:24:12.309Z,973.7
2023-02-01T05:25:55.747Z,975.1
2023-02-01T05:27:39.111Z,977.4
2023-02-01T05:29:22.551Z,978.5
2023-02-01T05:31:05.892Z,977
2023-02-01T05:32:49.290Z,974.4
2023-02-01T05:37:58.529Z,978
2023-02-01T05:39:41.931Z,976
2023-02-01T05:41:25.335Z,973.1
2023-02-01T05:43:08.747Z,972.1
2023-02-01T05:44:52.120Z,971.4
2023-02-01T05:46:35.519Z,970.5
2023-02-01T05:48:18.909Z,972
2023-02-01T05:50:02.309Z,969.7
2023-02-01T05:51:46.016Z,968.5
2023-02-01T05:53:29.432Z,966.8
2023-02-01T05:55:12.802Z,970
2023-02-01T05:56:56.280Z,973.1
2023-02-01T05:58:39.710Z,974
2023-02-01T06:00:23.000Z,975.4
2023-02-01T06:02:06.408Z,977.3
2023-02-01T06:03:49.787Z,977.5
2023-02-01T06:07:16.267Z,978.2
2023-02-01T06:08:59.712Z,976.2
2023-02-01T06:10:43.061Z,973.5
2023-02-01T06:12:26.448Z,973.1
2023-02-01T06:14:09.835Z,973.8
2023-02-01T06:15:53.231Z,972.8
2023-02-01T06:17:36.638Z,974.2
2023-02-01T06:22:45.881Z,974.4
2023-02-01T06:24:29.271Z,975.7
2023-02-01T06:26:12.675Z,977.1
2023-02-01T06:27:56.056Z,980.3
2023-02-01T06:29:39.472Z,982.1
2023-02-01T06:31:22.854Z,982.6
2023-02-01T06:33:06.288Z,984.6
2023-02-01T06:34:49.647Z,984.2
2023-02-01T06:38:16.148Z,988.1
2023-02-01T06:39:59.507Z,990.1
2023-02-01T06:41:42.910Z,993.3
2023-02-01T06:43:26.332Z,992.3
2023-02-01T06:45:09.713Z,990.8
2023-02-01T06:46:53.104Z,993.2
2023-02-01T06:48:36.538Z,994.4
2023-02-01T06:50:19.899Z,992.2
2023-02-01T06:52:03.612Z,990.1
2023-02-01T06:53:46.995Z,990.1
2023-02-01T06:55:30.396Z,988.7
2023-02-01T06:57:13.825Z,985.5
2023-02-01T06:58:57.236Z,980.2
2023-02-01T07:00:40.586Z,975.3
2023-02-01T07:02:23.964Z,968.4
2023-02-01T07:04:07.399Z,963.6
2023-02-01T07:07:33.831Z,957.8
2023-02-01T07:11:00.633Z,953.7
2023-02-01T07:12:44.048Z,952.4
2023-02-01T07:14:27.426Z,954.7
2023-02-01T07:16:10.812Z,953.3
2023-02-01T07:17:54.218Z,948.2
2023-02-01T07:19:37.619Z,944.4
2023-02-01T07:21:21.336Z,944.6
2023-02-01T07:23:04.708Z,945.1
2023-02-01T07:24:48.136Z,942.5
2023-02-01T07:26:31.511Z,942.2
2023-02-01T07:28:14.900Z,939.2
2023-02-01T07:29:58.332Z,940.4
2023-02-01T07:31:41.705Z,940
2023-02-01T07:33:25.098Z,940
2023-02-01T07:36:51.567Z,935.4
2023-02-01T07:38:34.967Z,933.6
2023-02-01T07:40:18.360Z,932.5
2023-02-01T07:42:01.752Z,930.2
2023-02-01T07:43:45.142Z,929.2
2023-02-01T07:45:28.532Z,926.5
2023-02-01T07:47:11.949Z,927.1
2023-02-01T07:52:21.191Z,928.8
2023-02-01T07:54:04.593Z,928.6
2023-02-01T07:55:48.160Z,927.7
2023-02-01T07:57:31.485Z,921.6
2023-02-01T07:59:14.770Z,913.7
2023-02-01T08:00:58.185Z,909.5
2023-02-01T08:02:41.584Z,915.4
2023-02-01T08:07:50.805Z,919.4
2023-02-01T08:09:34.372Z,919.2
2023-02-01T08:11:17.640Z,918.5
2023-02-01T08:13:00.994Z,920.5
2023-02-01T08:14:44.413Z,935.8
2023-02-01T08:16:27.811Z,948.1
2023-02-01T08:18:11.198Z,953.2
2023-02-01T08:19:54.588Z,953.4
2023-02-01T08:23:21.039Z,944.1
2023-02-01T08:25:04.450Z,942.5
2023-02-01T08:26:47.985Z,939.6
2023-02-01T08:28:31.222Z,936.2
2023-02-01T08:30:14.711Z,939.8
2023-02-01T08:31:58.161Z,940.8
2023-02-01T08:33:41.425Z,939.4
2023-02-01T08:38:50.659Z,927.9
2023-02-01T08:40:34.061Z,921.7
2023-02-01T08:42:17.458Z,917.8
2023-02-01T08:44:00.875Z,912.6
2023-02-01T08:45:44.241Z,908.1
2023-02-01T08:47:27.632Z,904.7
2023-02-01T08:49:11.106Z,900.8
2023-02-01T08:50:54.435Z,900.3
2023-02-01T08:52:38.196Z,899.5
2023-02-01T08:54:21.600Z,895.3
2023-02-01T08:56:05.009Z,893.5
2023-02-01T08:57:48.374Z,891.4
2023-02-01T08:59:31.851Z,888.2
2023-02-01T09:01:15.188Z,883
2023-02-01T09:02:58.579Z,879.5
2023-02-01T09:04:42.015Z,876.6
2023-02-01T09:08:08.414Z,867.3
2023-02-01T09:09:51.788Z,866
2023-02-01T09:11:35.228Z,864.6
2023-02-01T09:13:18.738Z,863.2
2023-02-01T09:15:02.006Z,860.1
2023-02-01T09:16:45.488Z,857.6
2023-02-01T09:18:28.965Z,855.7
2023-02-01T09:20:12.334Z,852.5
2023-02-01T09:23:38.917Z,846.8
2023-02-01T09:25:22.164Z,844.4
2023-02-01T09:27:05.422Z,841.4
2023-02-01T09:28:48.902Z,838.5
2023-02-01T09:30:32.387Z,836.3
2023-02-01T09:32:15.687Z,834.5
2023-02-01T09:33:59.086Z,834.4
2023-02-01T09:35:42.472Z,829.5
2023-02-01T09:39:09.049Z,824
2023-02-01T09:40:52.293Z,818.2
2023-02-01T09:42:35.798Z,814.8
2023-02-01T09:44:19.231Z,816.7
2023-02-01T09:46:02.449Z,813.8
2023-02-01T09:47:45.934Z,808.8
2023-02-01T09:49:29.256Z,808.3
2023-02-01T09:51:12.901Z,806.1
2023-02-01T09:54:39.268Z,803.5
2023-02-01T09:56:22.518Z,793.4
2023-02-01T09:58:06.155Z,790.4
2023-02-01T09:59:49.535Z,786.7
2023-02-01T10:01:32.913Z,783.5
2023-02-01T10:03:16.094Z,781.1
2023-02-01T10:04:59.645Z,780.2
2023-02-01T10:06:43.096Z,775.5
2023-02-01T10:10:09.510Z,769.4
2023-02-01T10:11:52.982Z,769.4
2023-02-01T10:13:36.331Z,770.8
2023-02-01T10:15:19.684Z,770.3
2023-02-01T10:17:03.098Z,770.6
2023-02-01T10:18:46.567Z,768.7
2023-02-01T10:20:29.876Z,763.7
2023-02-01T10:22:13.373Z,761.6
2023-02-01T10:25:39.671Z,763.3
2023-02-01T10:27:23.043Z,767.5
2023-02-01T10:29:06.587Z,768
2023-02-01T10:30:49.893Z,773.3
2023-02-01T10:32:33.387Z,780.1
2023-02-01T10:34:16.713Z,789.1
2023-02-01T10:36:00.149Z,796.5
2023-02-01T10:37:43.560Z,799
2023-02-01T10:39:27.170Z,801.1
2023-02-01T10:41:10.684Z,800.4
2023-02-01T10:42:53.961Z,797
2023-02-01T10:44:37.456Z,798.8
2023-02-01T10:46:20.853Z,799
2023-02-01T10:48:04.276Z,800.7
2023-02-01T10:49:47.663Z,802.2
2023-02-01T10:54:56.882Z,799.7
2023-02-01T10:56:40.301Z,800
2023-02-01T10:58:23.691Z,803.7
2023-02-01T11:00:07.048Z,808.7
2023-02-01T11:01:50.526Z,811.4
2023-02-01T11:03:33.894Z,811.5
2023-02-01T11:05:17.080Z,813.6
2023-02-01T11:10:26.477Z,826.4
2023-02-01T11:12:09.824Z,830.7
2023-02-01T11:13:53.288Z,834.2
2023-02-01T11:15:36.676Z,840.8
2023-02-01T11:17:20.195Z,844.4
2023-02-01T11:19:03.492Z,841.7
2023-02-01T11:20:46.878Z,842.7
2023-02-01T11:24:13.292Z,863.1
2023-02-01T11:25:56.727Z,889.7
2023-02-01T11:27:40.117Z,887.2
2023-02-01T11:29:23.533Z,888.5
2023-02-01T11:31:06.963Z,893.3
2023-02-01T11:32:50.303Z,900.1
2023-02-01T11:34:33.711Z,895.4
2023-02-01T11:36:17.128Z,895.1
2023-02-01T11:39:43.585Z,898.6
2023-02-01T11:41:27.057Z,904
2023-02-01T11:43:10.386Z,914.1
2023-02-01T11:44:53.814Z,917.6
2023-02-01T11:46:37.178Z,919.1
2023-02-01T11:48:20.512Z,919.7
2023-02-01T11:50:04.077Z,919.1
2023-02-01T11:51:47.431Z,918.5
2023-02-01T11:53:31.110Z,918.5
2023-02-01T11:55:14.339Z,917
2023-02-01T11:56:57.741Z,913
2023-02-01T11:58:41.124Z,913
2023-02-01T12:00:24.691Z,913.2
2023-02-01T12:02:08.127Z,914.1
2023-02-01T12:03:51.595Z,915.6
2023-02-01T12:05:34.939Z,912.3
2023-02-01T12:09:01.330Z,902.5
2023-02-01T12:10:44.678Z,895.2
2023-02-01T12:12:28.004Z,893.7
2023-02-01T12:14:11.321Z,894.1
2023-02-01T12:15:54.719Z,898.6
2023-02-01T12:17:38.307Z,905.4
2023-02-01T12:19:21.634Z,911.3
2023-02-01T12:21:05.115Z,913.5
2023-02-01T12:22:48.801Z,915.3
2023-02-01T12:24:32.017Z,916.8
2023-02-01T12:26:15.586Z,913.4
2023-02-01T12:27:58.936Z,907.7
2023-02-01T12:29:42.401Z,906.7
2023-02-01T12:31:25.609Z,902.7
2023-02-01T12:33:09.162Z,896.3
2023-02-01T12:34:52.576Z,894.6
2023-02-01T12:36:36.287Z,892.9
2023-02-01T12:38:19.759Z,896.7
2023-02-01T12:40:02.927Z,902.8
2023-02-01T12:41:46.481Z,911
2023-02-01T12:43:29.863Z,913.5
2023-02-01T12:45:13.388Z,912.7
2023-02-01T12:46:56.751Z,911.8
2023-02-01T12:48:40.073Z,913.7
2023-02-01T12:52:06.600Z,913.1
2023-02-01T12:53:49.972Z,910.2
2023-02-01T12:55:33.384Z,903.4
2023-02-01T12:57:16.558Z,904.4
2023-02-01T12:59:00.122Z,904.2
2023-02-01T13:00:43.535Z,902.3
2023-02-01T13:02:26.888Z,901.3
2023-02-01T13:04:10.115Z,900.4
2023-02-01T13:07:36.600Z,895.4
2023-02-01T13:09:20.133Z,891.4
2023-02-01T13:11:03.573Z,891.1
2023-02-01T13:12:46.956Z,889.2
2023-02-01T13:14:30.181Z,887.2
2023-02-01T13:16:13.621Z,888
2023-02-01T13:17:57.146Z,894.1
2023-02-01T13:19:40.544Z,900.1
2023-02-01T13:23:07.021Z,904.9
2023-02-01T13:24:50.416Z,913.1
2023-02-01T13:26:33.769Z,913.7
2023-02-01T13:28:17.185Z,918.7
2023-02-01T13:30:00.602Z,923.6
2023-02-01T13:31:43.999Z,928.3
2023-02-01T13:33:27.346Z,933.8
2023-02-01T13:35:10.750Z,939.3
2023-02-01T13:38:37.307Z,938.5
2023-02-01T13:40:20.640Z,936.4
2023-02-01T13:42:04.067Z,937.5
2023-02-01T13:43:47.433Z,924.5
2023-02-01T13:45:30.837Z,929.1
2023-02-01T13:47:14.113Z,947.7
2023-02-01T13:48:57.624Z,955.8
2023-02-01T13:50:41.022Z,962
2023-02-01T13:54:07.312Z,967.8
2023-02-01T13:55:50.838Z,974.2
2023-02-01T13:57:34.282Z,980.4
2023-02-01T13:59:17.678Z,981.8
2023-02-01T14:01:00.961Z,989
2023-02-01T14:02:44.476Z,990.1
2023-02-01T14:04:27.876Z,988.1
2023-02-01T14:06:11.258Z,984.6
2023-02-01T14:11:20.491Z,975.3
2023-02-01T14:13:03.918Z,970
2023-02-01T14:14:47.299Z,964.3
2023-02-01T14:16:30.645Z,960.1
2023-02-01T14:18:14.099Z,956.5
2023-02-01T14:19:57.397Z,952.8
2023-02-01T14:21:40.933Z,949.3
2023-02-01T14:23:24.346Z,946.2
2023-02-01T14:26:50.817Z,935.8
2023-02-01T14:28:34.074Z,931.4
2023-02-01T14:30:17.414Z,927.3
2023-02-01T14:32:01.071Z,923.4
2023-02-01T14:33:44.339Z,919.8
2023-02-01T14:35:27.677Z,920.2
2023-02-01T14:37:11.101Z,919.2
2023-02-01T14:38:54.512Z,916.1
2023-02-01T14:42:21.058Z,914.2
2023-02-01T14:44:04.346Z,911.4
2023-02-01T14:45:47.833Z,911.4
2023-02-01T14:47:31.171Z,910.5
2023-02-01T14:49:14.568Z,907.6
2023-02-01T14:50:57.895Z,904.7
2023-02-01T14:52:41.399Z,903.8
2023-02-01T14:54:24.810Z,903.3
2023-02-01T14:59:34.025Z,896.6
2023-02-01T15:01:17.426Z,895.5
2023-02-01T15:03:00.720Z,894.3
2023-02-01T15:04:44.195Z,894.6
2023-02-01T15:06:27.631Z,895
2023-02-01T15:08:10.979Z,896.6
2023-02-01T15:09:54.369Z,896.6
2023-02-01T15:11:37.801Z,895.1
2023-02-01T15:15:04.271Z,896.5
2023-02-01T15:16:47.622Z,896.5
2023-02-01T15:18:31.060Z,895.2
2023-02-01T15:20:14.491Z,894
2023-02-01T15:21:57.835Z,893.3
2023-02-01T15:23:41.217Z,890.8
2023-02-01T15:25:24.445Z,891
2023-02-01T15:27:07.918Z,891.3
2023-02-01T15:30:34.496Z,889.7
2023-02-01T15:32:17.890Z,888.8
2023-02-01T15:34:01.290Z,888.4
2023-02-01T15:35:44.535Z,891
2023-02-01T15:37:28.126Z,893.3
2023-02-01T15:39:11.459Z,893.6
2023-02-01T15:40:54.923Z,894.8
2023-02-01T15:42:38.270Z,895.6
2023-02-01T15:46:04.847Z,894.3
2023-02-01T15:47:48.285Z,895.2
2023-02-01T15:49:31.582Z,898.8
2023-02-01T15:51:14.936Z,899.8
2023-02-01T15:52:58.349Z,897.8
2023-02-01T15:54:41.668Z,899.3
2023-02-01T15:56:25.110Z,898.5
2023-02-01T15:58:08.482Z,899.1
2023-02-01T16:01:34.963Z,904.7
2023-02-01T16:03:18.430Z,905.6
2023-02-01T16:05:01.770Z,905.7
2023-02-01T16:06:45.176Z,905
2023-02-01T16:08:28.392Z,904
2023-02-01T16:10:11.916Z,904.8
2023-02-01T16:11:55.175Z,906.2
2023-02-01T16:13:38.798Z,907.4
2023-02-01T16:17:05.240Z,903.8
2023-02-01T16:18:48.605Z,907
2023-02-01T16:20:32.068Z,904.3
2023-02-01T16:22:15.443Z,901.4
2023-02-01T16:23:58.823Z,895
2023-02-01T16:25:42.054Z,891
2023-02-01T16:27:25.595Z,890.5
2023-02-01T16:29:08.979Z,900.3
2023-02-01T16:32:35.432Z,920.4
2023-02-01T16:34:18.927Z,924.6
2023-02-01T16:36:02.267Z,923
2023-02-01T16:37:45.652Z,920.4
2023-02-01T16:39:29.058Z,919
2023-02-01T16:41:12.282Z,917.6
2023-02-01T16:42:55.884Z,922.8
2023-02-01T16:44:39.259Z,922.7
2023-02-01T16:49:48.450Z,929.3
2023-02-01T16:51:31.741Z,934.1
2023-02-01T16:53:15.315Z,936.5
2023-02-01T16:54:58.714Z,938.2
2023-02-01T16:56:42.093Z,943.6
2023-02-01T16:58:25.292Z,948.1
2023-02-01T17:00:08.702Z,955.2
2023-02-01T17:01:52.079Z,963.5
2023-02-01T17:05:18.535Z,978.7
2023-02-01T17:07:01.942Z,990.7
2023-02-01T17:08:45.370Z,996.7
2023-02-01T17:10:28.910Z,1000
2023-02-01T17:12:12.282Z,1001.7
2023-02-01T17:13:55.701Z,1002.3
2023-02-01T17:15:38.933Z,1007.3
2023-02-01T17:17:22.495Z,1012.6
2023-02-01T17:20:49.006Z,1019.9
2023-02-01T17:22:32.296Z,1025
2023-02-01T17:24:15.796Z,1027.3
2023-02-01T17:25:59.192Z,1032
2023-02-01T17:27:42.527Z,1035.4
2023-02-01T17:29:25.961Z,1038.4
2023-02-01T17:31:09.184Z,1037.8
2023-02-01T17:32:52.566Z,1038.3
2023-02-01T17:38:01.884Z,1045
2023-02-01T17:39:45.376Z,1047
2023-02-01T17:41:28.754Z,1049.6
2023-02-01T17:43:12.015Z,1051.6
2023-02-01T17:44:55.411Z,1054
2023-02-01T17:46:38.947Z,1054.3
2023-02-01T17:48:22.401Z,1057.8
2023-02-01T17:50:05.756Z,1060.5
2023-02-01T17:51:49.473Z,1062
2023-02-01T17:53:32.858Z,1062
2023-02-01T17:55:16.198Z,1062.5
2023-02-01T17:56:59.661Z,1060.3
2023-02-01T17:58:43.069Z,1060.2
2023-02-01T18:00:26.439Z,1062.1
2023-02-01T18:02:09.805Z,1063.1
2023-02-01T18:03:53.284Z,1064.7
2023-02-01T18:07:19.798Z,1062.6
2023-02-01T18:09:03.124Z,1063.4
2023-02-01T18:10:46.505Z,1062
2023-02-01T18:12:29.868Z,1061.6
2023-02-01T18:14:13.302Z,1062.4
2023-02-01T18:15:56.529Z,1059.7
2023-02-01T18:17:39.987Z,1059.1
2023-02-01T18:19:23.426Z,1061.2
2023-02-01T18:24:32.718Z,1063.4
2023-02-01T18:26:16.116Z,1066.6
2023-02-01T18:27:59.494Z,1064.8
2023-02-01T18:29:42.913Z,1063.4
2023-02-01T18:31:26.319Z,1062.4
2023-02-01T18:33:09.689Z,1061.3
2023-02-01T18:34:53.068Z,1062
2023-02-01T18:36:36.500Z,1058.6
2023-02-01T18:40:02.785Z,1051.8
2023-02-01T18:41:46.195Z,1052
2023-02-01T18:43:29.684Z,1048.6
2023-02-01T18:45:13.091Z,1049.4
2023-02-01T18:46:56.435Z,1049.7
2023-02-01T18:48:39.968Z,1048.5
2023-02-01T18:50:23.332Z,1046.7
2023-02-01T18:52:06.559Z,1046.6
2023-02-01T18:53:50.435Z,1045.3
2023-02-01T18:55:33.692Z,1040.2
2023-02-01T18:57:17.064Z,1036.6
2023-02-01T18:59:00.525Z,1037.2
2023-02-01T19:00:44.008Z,1037.7
2023-02-01T19:02:27.260Z,1037.8
2023-02-01T19:04:10.641Z,1036.2
2023-02-01T19:05:54.090Z,1036.3
2023-02-01T19:11:03.312Z,1039.2
2023-02-01T19:12:46.748Z,1040.2
2023-02-01T19:14:30.266Z,1039.7
2023-02-01T19:16:13.473Z,1038.3
2023-02-01T19:17:56.891Z,1039.7
2023-02-01T19:19:40.256Z,1039
2023-02-01T19:21:23.788Z,1034
2023-02-01T19:23:07.073Z,1031.2
2023-02-01T19:26:33.596Z,1036.4
2023-02-01T19:28:17.105Z,1037.8
2023-02-01T19:30:00.371Z,1038
2023-02-01T19:31:43.897Z,1036.6
2023-02-01T19:33:27.284Z,1039.7
2023-02-01T19:35:10.650Z,1038.4
2023-02-01T19:36:54.071Z,1040.5
2023-02-01T19:38:37.296Z,1043.4
2023-02-01T19:42:03.932Z,1046.1
2023-02-01T19:43:47.368Z,1051.6
2023-02-01T19:45:30.703Z,1055.6
2023-02-01T19:47:14.091Z,1059.3
2023-02-01T19:48:57.507Z,1058.1
2023-02-01T19:50:40.761Z,1056.7
2023-02-01T19:52:24.215Z,1057
2023-02-01T19:54:07.642Z,1057.3
2023-02-01T19:59:16.904Z,1066.9
2023-02-01T20:00:59.492Z,1066.1
2023-02-01T20:02:42.766Z,1067.4
2023-02-01T20:04:26.263Z,1068.3
2023-02-01T20:06:09.659Z,1070
2023-02-01T20:07:53.065Z,1070.8
2023-02-01T20:09:36.301Z,1072.6
2023-02-01T20:11:19.789Z,1075.2
2023-02-01T20:14:46.288Z,1075.4
2023-02-01T20:16:29.773Z,1077.7
2023-02-01T20:18:13.052Z,1080.3
2023-02-01T20:19:56.755Z,1085.3
2023-02-01T20:21:39.864Z,1091.1
2023-02-01T20:23:23.328Z,1098.6
2023-02-01T20:25:06.631Z,1101.3
2023-02-01T20:26:50.957Z,1104.2
2023-02-01T20:30:17.463Z,1106.9
2023-02-01T20:32:00.852Z,1110
2023-02-01T20:33:44.186Z,1115
2023-02-01T20:35:27.629Z,1115.5
2023-02-01T20:37:11.006Z,1118.8
2023-02-01T20:38:54.449Z,1121.8
2023-02-01T20:40:37.746Z,1126.4
2023-02-01T20:42:21.082Z,1127.2
2023-02-01T20:47:30.510Z,1140.9
2023-02-01T20:49:13.728Z,1141.6
2023-02-01T20:50:57.308Z,1144.8
2023-02-01T20:52:40.525Z,1148.6
2023-02-01T20:54:24.109Z,1149
2023-02-01T20:56:07.448Z,1151.6
2023-02-01T20:57:50.693Z,1153.1
2023-02-01T20:59:34.254Z,1153.5
2023-02-01T21:04:43.555Z,1159
2023-02-01T21:06:26.826Z,1154.7
2023-02-01T21:08:10.147Z,1155.4
2023-02-01T21:09:53.686Z,1160.1
2023-02-01T21:11:37.062Z,1160.8
2023-02-01T21:13:20.481Z,1160.1
2023-02-01T21:15:03.865Z,1158.2
2023-02-01T21:16:47.115Z,1159.5
2023-02-01T21:20:13.693Z,1163.5
2023-02-01T21:21:57.135Z,1165.5
2023-02-01T21:23:40.512Z,1163.1
2023-02-01T21:25:23.804Z,1162.1
2023-02-01T21:27:07.357Z,1161.7
2023-02-01T21:28:50.742Z,1159.5
2023-02-01T21:30:34.087Z,1159.5
2023-02-01T21:32:17.552Z,1159.4
2023-02-01T21:37:26.733Z,1145.6
2023-02-01T21:39:10.143Z,1139.5
2023-02-01T21:40:53.564Z,1140.6
2023-02-01T21:42:36.875Z,1141.2
2023-02-01T21:44:20.273Z,1137
2023-02-01T21:46:03.767Z,1132.1
2023-02-01T21:47:47.149Z,1127.7
2023-02-01T21:49:30.459Z,1126.3
2023-02-01T21:54:39.633Z,1127.8
2023-02-01T21:56:23.205Z,1128.3
2023-02-01T21:58:06.536Z,1127.4
2023-02-01T21:59:49.988Z,1127.4
2023-02-01T22:01:33.266Z,1126.2
2023-02-01T22:03:16.591Z,1122.4
2023-02-01T22:05:00.146Z,1117.6
2023-02-01T22:06:43.460Z,1113
2023-02-01T22:10:09.859Z,1107.5
2023-02-01T22:11:53.432Z,1103.1
2023-02-01T22:13:36.799Z,1100.8
2023-02-01T22:15:20.061Z,1098.4
2023-02-01T22:17:03.511Z,1099.1
2023-02-01T22:18:46.875Z,1097.2
2023-02-01T22:20:30.245Z,1094.7
2023-02-01T22:22:13.683Z,1092.3
2023-02-01T22:27:22.906Z,1088.8
2023-02-01T22:29:06.369Z,1087.8
2023-02-01T22:30:49.811Z,1085.3
2023-02-01T22:32:33.181Z,1087.7
2023-02-01T22:34:16.639Z,1083.1
2023-02-01T22:36:00.043Z,970.4
2023-02-01T22:37:43.433Z,915.8
2023-02-01T22:39:26.829Z,850.8
2023-02-01T22:42:53.291Z,736.7
2023-02-01T22:44:36.587Z,718.3
2023-02-01T22:46:20.080Z,700
2023-02-01T22:48:03.313Z,697.8
2023-02-01T22:49:46.857Z,701.4
2023-02-01T22:51:30.161Z,711.8
2023-02-01T22:53:13.522Z,723.8
2023-02-01T22:54:56.879Z,742.8
2023-02-01T23:00:06.159Z,819.5
2023-02-01T23:01:49.610Z,829.4
2023-02-01T23:03:32.941Z,840.8
2023-02-01T23:05:16.324Z,849
2023-02-01T23:06:59.817Z,853
2023-02-01T23:08:43.154Z,860.1
2023-02-01T23:10:26.502Z,864.4
2023-02-01T23:12:09.880Z,869.4
2023-02-01T23:15:36.431Z,871.1
2023-02-01T23:17:19.770Z,875.5
2023-02-01T23:19:03.152Z,876.3
2023-02-01T23:20:46.553Z,877.3
2023-02-01T23:22:29.959Z,877.4
2023-02-01T23:24:13.339Z,877.6
2023-02-01T23:25:56.716Z,877.8
2023-02-01T23:27:40.114Z,878.1
2023-02-01T23:32:49.360Z,877.5
2023-02-01T23:34:32.849Z,879
2023-02-01T23:36:16.147Z,881
2023-02-01T23:37:59.586Z,885.3
2023-02-01T23:39:42.964Z,886.2
2023-02-01T23:41:26.426Z,886
2023-02-01T23:43:09.841Z,886.1
2023-02-01T23:44:53.223Z,887.6
2023-02-01T23:48:19.729Z,889.8
2023-02-01T23:50:03.020Z,890.5
2023-02-01T23:51:46.444Z,891.1
2023-02-01T23:53:29.800Z,891.6
2023-02-01T23:55:13.184Z,891
2023-02-01T23:56:56.675Z,889.8
2023-02-01T23:58:40.016Z,888.2
